Time;durP1;ratioP1;P1;durP2;ratioP2;P2;SDS_P1;SDS_P2;PMS_P1;PMS_P2;Temp;Humidity;BMP_temperature;BMP_pressure;BME280_temperature;BME280_humidity;BME280_pressure;Samples;Min_cycle;Max_cycle;Signal;HPM_P1;HPM_P2
2023/07/13 00:00:57;;;;;;;16.20;12.80;;;;;;;18.52;80.67;96880.91;103463;1277;95969;-76
2023/07/13 00:04:22;;;;;;;17.80;12.60;;;;;;;18.55;80.87;96877.74;102724;1282;96187;-75
2023/07/13 00:23:14;;;;;;;14.20;12.40;;;;;;;18.49;81.30;96833.95;101279;1300;638522;-74
2023/07/13 00:26:23;;;;;;;15.60;10.90;;;;;;;18.51;81.60;96846.85;102848;1287;96197;-74
2023/07/13 00:42:28;;;;;;;13.80;10.60;;;;;;;18.60;81.24;96919.85;101315;1298;638846;-77
2023/07/13 00:45:42;;;;;;;14.30;9.50;;;;;;;18.57;81.97;96924.66;103449;1297;97359;-77
2023/07/13 01:32:08;;;;;;;8.40;4.90;;;;;;;18.57;81.52;96944.87;105622;1261;94398;-78
2023/07/13 01:34:55;;;;;;;;;;;;;;;18.53;81.64;96936.39;107147;1247;97354;-81
2023/07/13 01:38:03;;;;;;;7.00;5.00;;;;;;;18.49;81.71;96933.81;106434;1251;109671;-79
2023/07/13 01:41:10;;;;;;;6.60;5.00;;;;;;;18.47;81.86;96928.80;105761;1260;100130;-82
2023/07/13 02:05:05;;;;;;;7.60;5.20;;;;;;;18.77;81.76;96933.94;102274;1289;643560;-78
2023/07/13 02:08:12;;;;;;;6.70;5.10;;;;;;;18.84;81.86;96935.48;98920;1283;5338533;-80
2023/07/13 02:34:48;;;;;;;6.80;5.50;;;;;;;18.86;81.66;96893.95;101440;1261;5398089;-78
2023/07/13 02:37:55;;;;;;;8.10;5.70;;;;;;;18.69;81.85;96895.74;106640;1255;95956;-78
2023/07/13 02:41:02;;;;;;;6.50;5.70;;;;;;;18.54;82.12;96898.41;105042;1270;98685;-79
2023/07/13 02:44:03;;;;;;;8.90;6.40;;;;;;;18.42;82.32;96895.28;105107;1269;100268;-77
2023/07/13 02:57:16;;;;;;;8.90;6.10;;;;;;;18.24;82.80;96892.73;101959;1292;638641;-80
2023/07/13 03:00:25;;;;;;;9.00;5.90;;;;;;;18.21;83.08;96884.20;102940;1286;96185;-78
2023/07/13 03:07:04;;;;;;;6.70;6.00;;;;;;;18.23;82.89;96870.98;101296;1297;636148;-80
2023/07/13 03:10:16;;;;;;;8.90;6.00;;;;;;;18.19;83.24;96872.34;104081;1270;97509;-78
2023/07/13 03:26:44;;;;;;;11.10;6.60;;;;;;;18.17;83.41;96895.33;101388;1297;642073;-75
2023/07/13 03:29:53;;;;;;;12.10;6.50;;;;;;;18.17;83.63;96901.23;102702;1284;97288;-74
2023/07/13 03:46:10;;;;;;;11.40;8.50;;;;;;;18.07;83.67;96916.30;100982;1301;638385;-75
2023/07/13 03:49:08;;;;;;;9.20;8.20;;;;;;;18.04;84.19;96919.41;103242;1278;95939;-73
2023/07/13 03:52:17;;;;;;;11.60;8.20;;;;;;;18.04;84.23;96918.36;102539;1288;95940;-75
2023/07/13 04:05:34;;;;;;;13.60;7.50;;;;;;;18.05;83.92;96897.44;101601;1298;640139;-76
2023/07/13 04:09:03;;;;;;;9.80;7.50;;;;;;;18.01;84.39;96896.56;102914;1295;96161;-75
2023/07/13 04:22:01;;;;;;;11.00;7.60;;;;;;;17.93;84.52;96905.13;101481;1298;638622;-79
2023/07/13 04:25:10;;;;;;;8.20;6.30;;;;;;;17.91;84.66;96903.48;103639;1276;97039;-76
2023/07/13 04:28:12;;;;;;;8.10;6.40;;;;;;;17.92;84.91;96906.55;102414;1293;95925;-76
2023/07/13 04:30:57;;;;;;;11.40;8.00;;;;;;;17.95;84.73;96912.73;101569;1302;109506;-79
2023/07/13 04:33:39;;;;;;;9.70;5.50;;;;;;;17.96;84.80;96913.50;102274;1286;147313;-80
2023/07/13 04:39:02;;;;;;;10.00;6.70;;;;;;;17.98;85.04;96916.90;102512;1285;95962;-80
2023/07/13 04:41:45;;;;;;;9.50;7.10;;;;;;;17.97;85.17;96916.62;102887;1286;97143;-79
2023/07/13 04:47:07;;;;;;;10.00;6.70;;;;;;;17.96;85.41;96904.11;102372;1291;102777;-79
2023/07/13 04:49:50;;;;;;;9.30;6.20;;;;;;;17.96;85.48;96894.23;102545;1289;102499;-75
2023/07/13 04:52:32;;;;;;;6.40;5.80;;;;;;;17.99;85.86;96884.88;102429;1288;96018;-76
2023/07/13 04:55:15;;;;;;;12.90;6.20;;;;;;;18.06;86.03;96876.10;102548;1289;96014;-78
2023/07/13 04:57:58;;;;;;;6.90;6.20;;;;;;;18.13;86.16;96870.48;102941;1286;110022;-75
2023/07/13 05:00:40;;;;;;;8.60;6.10;;;;;;;18.21;86.24;96871.90;103106;1279;100436;-77
2023/07/13 05:03:08;;;;;;;7.40;6.30;;;;;;;18.30;86.24;96873.27;103056;1298;100110;-78
2023/07/13 05:05:35;;;;;;;7.20;6.50;;;;;;;18.38;86.26;96869.98;103845;1271;95967;-78
2023/07/13 05:08:03;;;;;;;11.60;7.20;;;;;;;18.47;86.40;96868.29;105850;1269;96901;-80
2023/07/13 05:11:11;;;;;;;8.40;6.60;;;;;;;18.56;86.40;96864.36;104690;1260;99814;-73
2023/07/13 05:14:20;;;;;;;9.00;7.40;;;;;;;18.67;86.30;96861.46;104027;1275;100392;-76
2023/07/13 05:37:43;;;;;;;9.60;6.70;;;;;;;19.64;85.89;96826.77;102413;1291;640123;-90
2023/07/13 05:41:31;;;;;;;7.30;5.80;;;;;;;20.00;85.15;96819.13;99418;1280;5336882;-92
2023/07/13 06:31:41;;;;;;;10.10;6.20;;;;;;;21.76;82.70;96808.33;105437;1274;99807;-80
2023/07/13 06:34:48;;;;;;;6.20;5.40;;;;;;;21.87;82.05;96812.06;106496;1254;100197;-77
2023/07/13 06:37:55;;;;;;;8.60;6.10;;;;;;;21.98;81.68;96815.54;105317;1265;99593;-77
2023/07/13 06:41:02;;;;;;;10.20;5.80;;;;;;;22.13;80.94;96814.33;104794;1269;95986;-76
2023/07/13 06:53:59;;;;;;;8.10;6.10;;;;;;;22.53;79.36;96797.31;101124;1298;637638;-80
2023/07/13 06:57:07;;;;;;;8.00;6.60;;;;;;;22.65;79.24;96794.30;102999;1289;95821;-79
2023/07/13 08:24:56;;;;;;;7.60;6.30;;;;;;;22.98;77.15;96816.63;105956;1261;94268;-79
2023/07/13 08:28:03;;;;;;;7.50;6.00;;;;;;;22.95;77.23;96815.65;105973;1259;98476;-81
2023/07/13 08:31:10;;;;;;;10.10;7.80;;;;;;;22.91;77.68;96813.21;104562;1270;100306;-73
2023/07/13 08:44:33;;;;;;;10.50;8.00;;;;;;;22.92;77.45;96804.41;101393;1300;642424;-72
2023/07/13 08:47:40;;;;;;;9.50;7.60;;;;;;;22.88;77.23;96804.95;102879;1286;96352;-74
2023/07/13 09:42:11;;;;;;;8.00;7.20;;;;;;;22.85;76.23;96797.91;105443;1264;95843;-72
2023/07/13 09:45:19;;;;;;;11.50;7.60;;;;;;;22.71;75.99;96808.00;106954;1250;96196;-76
2023/07/13 09:48:31;;;;;;;11.20;8.10;;;;;;;22.59;76.49;96814.92;106380;1256;100047;-74
2023/07/13 09:51:38;;;;;;;16.70;9.00;;;;;;;22.45;76.97;96845.03;105422;1260;101204;-80
2023/07/13 09:54:48;;;;;;;10.20;5.20;;;;;;;22.22;77.42;96846.52;105977;1268;99048;-78
2023/07/13 09:57:47;;;;;;;4.70;3.30;;;;;;;21.89;76.82;96847.52;105056;1269;96181;-78
2023/07/13 11:16:58;;;;;;;4.00;3.60;;;;;;;18.86;81.57;96955.92;105620;1262;97947;-76
2023/07/13 11:20:08;;;;;;;4.60;3.60;;;;;;;18.86;82.21;96961.83;106978;1250;101281;-83
2023/07/13 11:23:28;;;;;;;4.20;3.70;;;;;;;18.88;82.21;96967.08;105483;1261;98931;-82
2023/07/13 11:26:33;;;;;;;4.90;3.60;;;;;;;18.74;82.06;96965.51;104244;1276;95977;-83
2023/07/13 11:29:53;;;;;;;5.30;3.70;;;;;;;18.63;82.28;96964.36;104005;1278;95932;-81
2023/07/13 11:57:35;;;;;;;5.60;4.50;;;;;;;18.68;82.56;96990.83;102341;1286;644210;-78
2023/07/13 12:00:42;;;;;;;5.40;4.40;;;;;;;18.67;83.15;96994.05;99932;1278;5344944;-78
2023/07/13 12:03:49;;;;;;;4.80;3.90;;;;;;;18.66;83.77;96995.03;103022;1287;98608;-80
2023/07/13 12:18:34;;;;;;;6.00;4.30;;;;;;;18.37;83.53;97022.30;101967;1289;635403;-79
2023/07/13 12:21:03;;;;;;;6.50;4.30;;;;;;;18.21;83.88;97028.27;105704;1263;96298;-80
2023/07/13 12:23:34;;;;;;;6.00;4.60;;;;;;;18.18;84.21;97039.56;104537;1269;95859;-79
2023/07/13 12:26:08;;;;;;;7.00;4.60;;;;;;;18.22;84.23;97062.64;104933;1262;98069;-80
2023/07/13 12:28:54;;;;;;;7.50;4.50;;;;;;;18.20;84.27;97078.05;104768;1260;101403;-80
2023/07/13 12:31:30;;;;;;;6.70;4.40;;;;;;;18.15;84.27;97075.30;105130;1258;145040;-74
2023/07/13 12:34:11;;;;;;;5.00;4.10;;;;;;;18.08;84.34;97075.59;105410;1257;95841;-79
2023/07/13 12:36:46;;;;;;;4.20;3.30;;;;;;;18.06;84.34;97077.86;105135;1264;96913;-80
2023/07/13 12:39:19;;;;;;;3.00;2.70;;;;;;;18.05;84.70;97076.94;105291;1257;98089;-80
2023/07/13 12:41:49;;;;;;;5.80;2.40;;;;;;;18.04;85.10;97080.59;105382;1266;100389;-82
2023/07/13 12:44:30;;;;;;;3.10;2.00;;;;;;;18.04;84.92;97083.31;105134;1253;98787;-80
2023/07/13 12:47:39;;;;;;;2.10;1.90;;;;;;;18.05;85.15;97084.27;105199;1256;95864;-75
2023/07/13 12:50:52;;;;;;;2.70;1.90;;;;;;;18.08;85.34;97082.80;104282;1272;96868;-75
2023/07/13 13:28:47;;;;;;;3.50;2.70;;;;;;;19.00;84.60;97041.09;105466;1264;95787;-74
2023/07/13 13:31:54;;;;;;;4.50;3.30;;;;;;;19.01;84.74;97044.15;105433;1264;98919;-75
2023/07/13 13:35:01;;;;;;;4.50;3.20;;;;;;;19.01;84.81;97044.81;104938;1270;97125;-77
2023/07/13 13:38:01;;;;;;;4.20;2.70;;;;;;;19.03;84.87;97049.24;104519;1275;96713;-76
2023/07/13 13:51:20;;;;;;;2.80;2.20;;;;;;;19.60;84.64;97046.89;101271;1310;638689;-76
2023/07/13 13:54:32;;;;;;;3.10;2.10;;;;;;;19.66;84.17;97047.65;103544;1279;96048;-75
2023/07/13 14:07:44;;;;;;;3.70;2.50;;;;;;;19.93;83.23;97050.03;101385;1301;637126;-73
2023/07/13 14:10:52;;;;;;;2.60;2.00;;;;;;;19.99;83.36;97055.88;104034;1276;95924;-74
2023/07/13 14:14:01;;;;;;;2.50;1.80;;;;;;;20.04;82.81;97058.59;103432;1286;95907;-72
2023/07/13 14:17:10;;;;;;;2.40;1.70;;;;;;;20.17;82.79;97059.45;102716;1291;98617;-78
2023/07/13 14:20:18;;;;;;;1.70;1.60;;;;;;;20.46;82.76;97046.55;97733;1302;5382635;-76
2023/07/13 14:36:46;;;;;;;2.60;2.10;;;;;;;21.29;80.38;97028.58;101155;1302;635872;-78
2023/07/13 14:39:55;;;;;;;3.60;1.70;;;;;;;21.25;80.27;97031.16;103625;1280;95870;-74
2023/07/13 14:42:22;;;;;;;2.40;1.70;;;;;;;21.28;80.45;97031.28;106147;1286;94057;-77
2023/07/13 14:44:50;;;;;;;2.60;2.20;;;;;;;21.36;80.50;97033.89;104662;1283;99650;-76
2023/07/13 14:47:19;;;;;;;2.40;1.80;;;;;;;21.40;80.10;97034.90;105954;1272;100863;-76
2023/07/13 14:49:47;;;;;;;3.00;2.00;;;;;;;21.46;79.59;97034.35;103835;1276;159059;-77
2023/07/13 14:52:21;;;;;;;2.10;1.90;;;;;;;21.53;79.00;97029.11;103963;1271;97168;-76
2023/07/13 14:54:49;;;;;;;2.20;1.90;;;;;;;21.53;78.92;97033.45;104051;1273;96746;-78
2023/07/13 14:57:19;;;;;;;3.00;1.70;;;;;;;21.48;78.72;97036.80;103965;1284;98287;-79
2023/07/13 14:59:48;;;;;;;3.10;2.00;;;;;;;21.43;78.60;97038.11;103978;1270;101628;-79
2023/07/13 15:02:29;;;;;;;1.80;1.70;;;;;;;21.39;78.30;97041.65;103989;1274;99008;-81
2023/07/13 15:04:58;;;;;;;2.50;2.00;;;;;;;21.32;77.79;97046.95;103976;1284;96817;-80
2023/07/13 15:07:26;;;;;;;2.90;1.90;;;;;;;21.21;77.77;97052.14;103630;1276;98201;-80
2023/07/13 15:09:54;;;;;;;2.50;2.00;;;;;;;21.08;78.03;97047.77;103910;1276;101282;-80
2023/07/13 15:12:22;;;;;;;3.80;2.20;;;;;;;20.97;78.06;97055.17;104033;1271;101461;-79
2023/07/13 15:14:50;;;;;;;3.50;2.00;;;;;;;20.86;77.93;97066.73;104038;1275;100251;-82
2023/07/13 15:17:37;;;;;;;4.70;2.40;;;;;;;20.79;77.67;97065.06;104257;1271;96918;-77
2023/07/13 15:20:29;;;;;;;5.60;2.70;;;;;;;20.79;77.63;97060.23;104660;1276;95844;-76
2023/07/13 15:22:58;;;;;;;2.70;2.00;;;;;;;20.78;77.37;97055.68;104986;1260;109659;-76
2023/07/13 15:25:30;;;;;;;3.50;2.40;;;;;;;20.78;77.27;97054.91;104842;1263;101529;-77
2023/07/13 15:27:58;;;;;;;4.40;2.70;;;;;;;20.79;77.41;97056.84;104628;1277;99856;-77
2023/07/13 15:30:30;;;;;;;2.80;2.50;;;;;;;20.86;77.30;97059.05;104705;1263;97130;-80
2023/07/13 15:33:02;;;;;;;4.20;2.50;;;;;;;20.89;77.05;97056.04;104794;1264;95879;-80
2023/07/13 15:35:30;;;;;;;4.90;2.70;;;;;;;20.93;76.95;97061.55;104996;1261;100979;-80
2023/07/13 15:37:58;;;;;;;3.20;2.60;;;;;;;21.05;77.19;97065.76;107401;1260;100185;-83
2023/07/13 15:40:26;;;;;;;2.80;2.50;;;;;;;21.20;77.03;97066.11;106252;1261;99483;-76
2023/07/13 15:42:53;;;;;;;3.00;2.40;;;;;;;21.25;76.47;97075.09;104766;1263;95914;-77
2023/07/13 15:45:25;;;;;;;3.10;2.30;;;;;;;21.27;75.97;97081.41;104820;1276;96251;-78
2023/07/13 15:47:53;;;;;;;2.40;2.00;;;;;;;21.29;75.73;97082.93;106980;1260;100899;-78
2023/07/13 15:50:24;;;;;;;4.00;2.20;;;;;;;21.29;75.35;97079.52;104851;1263;100399;-78
2023/07/13 15:52:59;;;;;;;5.10;2.50;;;;;;;21.32;75.58;97070.33;104708;1264;100260;-78
2023/07/13 15:55:26;;;;;;;1.90;1.80;;;;;;;21.36;75.77;97072.72;104382;1264;97241;-78
2023/07/13 15:57:54;;;;;;;2.20;2.00;;;;;;;21.38;75.79;97076.81;104783;1260;96510;-78
2023/07/13 16:00:28;;;;;;;2.30;2.10;;;;;;;21.35;75.41;97079.48;104843;1276;101618;-78
2023/07/13 16:02:55;;;;;;;3.40;2.20;;;;;;;21.32;74.96;97089.94;104744;1263;109764;-78
2023/07/13 16:05:25;;;;;;;2.90;2.60;;;;;;;21.23;74.64;97095.71;104759;1263;100230;-78
2023/07/13 16:07:54;;;;;;;2.80;2.40;;;;;;;20.96;74.50;97098.09;104741;1267;95857;-79
2023/07/13 16:10:35;;;;;;;4.60;2.10;;;;;;;20.79;74.80;97107.42;104815;1277;95812;-77
2023/07/13 16:13:04;;;;;;;2.50;2.30;;;;;;;20.75;75.49;97111.08;104746;1263;99437;-77
2023/07/13 16:15:32;;;;;;;9.20;2.60;;;;;;;20.79;75.87;97115.09;104785;1263;109542;-82
2023/07/13 16:18:41;;;;;;;2.30;2.10;;;;;;;20.87;75.67;97115.86;104675;1263;100034;-79
2023/07/13 16:21:52;;;;;;;2.50;2.00;;;;;;;20.94;75.52;97122.30;104049;1268;96388;-78
2023/07/13 16:25:06;;;;;;;2.30;1.70;;;;;;;21.00;74.91;97119.03;103390;1280;97018;-78
2023/07/13 16:38:40;;;;;;;3.30;2.00;;;;;;;20.76;74.26;97119.95;101574;1292;643706;-79
2023/07/13 16:41:47;;;;;;;3.50;2.20;;;;;;;20.58;74.44;97118.50;103449;1279;96054;-76
2023/07/13 16:44:54;;;;;;;3.90;2.50;;;;;;;20.52;74.69;97120.25;102171;1293;97211;-77
2023/07/13 16:57:19;;;;;;;2.70;2.40;;;;;;;20.25;75.57;97144.16;101287;1301;638020;-81
2023/07/13 16:59:47;;;;;;;3.80;2.50;;;;;;;20.21;75.77;97140.28;103802;1270;95862;-82
2023/07/13 17:02:30;;;;;;;3.80;2.50;;;;;;;20.25;75.44;97137.10;104026;1272;95898;-81
2023/07/13 17:04:58;;;;;;;4.30;2.90;;;;;;;20.26;75.72;97142.04;103685;1277;99170;-79
2023/07/13 17:07:28;;;;;;;3.80;2.90;;;;;;;20.20;75.90;97148.67;103651;1277;100906;-78
2023/07/13 17:09:56;;;;;;;3.20;2.60;;;;;;;20.19;75.69;97151.63;104554;1259;130193;-80
2023/07/13 17:12:24;;;;;;;5.40;2.60;;;;;;;20.22;75.62;97154.98;104656;1264;97139;-78
2023/07/13 17:14:52;;;;;;;6.20;4.00;;;;;;;20.24;75.48;97158.27;104716;1264;95988;-78
2023/07/13 17:17:32;;;;;;;6.00;4.30;;;;;;;20.24;75.61;97153.93;104745;1264;99848;-83
2023/07/13 17:20:03;;;;;;;6.50;3.70;;;;;;;20.14;75.74;97152.04;104767;1259;101608;-84
2023/07/13 17:22:30;;;;;;;5.50;4.20;;;;;;;20.04;75.97;97152.77;104649;1276;100971;-83
2023/07/13 17:24:59;;;;;;;5.70;3.80;;;;;;;19.99;76.44;97157.45;104779;1264;95990;-84
2023/07/13 17:28:09;;;;;;;6.00;4.00;;;;;;;19.96;76.47;97157.78;104770;1264;97017;-80
2023/07/13 17:31:17;;;;;;;5.40;4.10;;;;;;;19.90;76.54;97150.02;103993;1269;99915;-75
2023/07/13 17:47:47;;;;;;;3.70;3.30;;;;;;;19.78;76.31;97117.61;101455;1298;642482;-82
2023/07/13 17:50:55;;;;;;;3.90;3.40;;;;;;;19.76;75.99;97110.94;103009;1287;95904;-81
2023/07/13 18:29:34;;;;;;;8.60;5.90;;;;;;;19.19;77.48;97158.08;102270;1292;101717;-74
2023/07/13 18:32:45;;;;;;;17.10;13.50;;;;;;;19.03;77.69;97160.84;103387;1278;99007;-74
2023/07/13 19:53:15;;;;;;;13.80;11.10;;;;;;;17.66;79.77;97250.55;106011;1262;107806;-82
2023/07/13 19:56:23;;;;;;;12.90;11.30;;;;;;;17.54;80.08;97248.90;105926;1257;100323;-80
2023/07/13 19:59:51;;;;;;;15.30;11.20;;;;;;;17.50;80.30;97251.81;104883;1273;98951;-82
2023/07/13 20:35:02;;;;;;;16.20;13.00;;;;;;;17.36;81.65;97244.48;104340;1270;100438;-71
2023/07/13 20:38:09;;;;;;;16.70;13.20;;;;;;;17.34;81.75;97255.20;104857;1274;98984;-72
2023/07/13 21:04:53;;;;;;;13.20;11.60;;;;;;;17.38;81.85;97278.91;101759;1290;642859;-71
2023/07/13 21:08:01;;;;;;;18.90;12.30;;;;;;;17.42;81.97;97288.61;98674;1289;5345811;-73
2023/07/13 21:24:23;;;;;;;14.60;11.50;;;;;;;17.05;82.47;97278.41;101305;1294;638573;-79
2023/07/13 21:27:31;;;;;;;16.00;11.20;;;;;;;17.02;82.65;97285.96;102949;1282;96314;-79
2023/07/13 22:01:36;;;;;;;12.10;10.60;;;;;;;16.78;82.78;97304.27;105234;1264;97963;-76
2023/07/13 22:04:44;;;;;;;19.60;11.40;;;;;;;16.72;82.92;97304.13;106229;1262;100040;-83
2023/07/13 22:07:50;;;;;;;19.00;9.70;;;;;;;16.70;82.85;97309.48;104879;1266;98155;-81
2023/07/13 22:10:40;;;;;;;13.60;10.30;;;;;;;16.66;82.91;97309.34;104484;1275;96078;-79
2023/07/13 22:13:47;;;;;;;12.60;10.60;;;;;;;16.64;82.80;97303.91;105200;1269;96001;-80
2023/07/13 22:27:11;;;;;;;12.70;10.20;;;;;;;16.43;82.71;97304.26;101293;1299;638715;-76
2023/07/13 22:30:10;;;;;;;13.10;9.70;;;;;;;16.36;82.84;97310.84;102984;1284;95990;-76
2023/07/13 22:33:18;;;;;;;13.60;9.80;;;;;;;16.29;82.75;97312.31;103035;1284;96062;-71
2023/07/13 22:46:18;;;;;;;12.90;10.20;;;;;;;15.92;83.06;97301.02;101418;1295;638630;-71
2023/07/13 22:49:39;;;;;;;13.00;9.40;;;;;;;15.89;83.11;97309.30;103072;1286;96039;-71
2023/07/13 22:52:48;;;;;;;16.30;9.70;;;;;;;15.88;83.16;97305.96;102160;1293;97348;-70
2023/07/13 23:30:53;;;;;;;10.70;7.40;;;;;;;15.29;83.05;97332.27;101591;1319;102704;-82
2023/07/13 23:33:35;;;;;;;14.20;8.30;;;;;;;15.28;83.14;97333.76;102772;1293;101050;-82
2023/07/13 23:36:03;;;;;;;10.30;8.70;;;;;;;15.26;83.11;97331.80;103330;1274;95862;-73
2023/07/13 23:38:31;;;;;;;11.10;9.30;;;;;;;15.21;82.90;97330.36;103979;1288;97132;-73
2023/07/13 23:40:58;;;;;;;12.20;8.70;;;;;;;15.19;83.09;97329.12;104368;1269;99932;-72
2023/07/13 23:43:26;;;;;;;9.80;8.80;;;;;;;15.18;83.18;97333.73;104373;1272;101805;-73
2023/07/13 23:45:54;;;;;;;11.30;8.20;;;;;;;15.15;82.95;97336.88;104171;1274;99283;-76
2023/07/13 23:48:22;;;;;;;11.50;7.80;;;;;;;15.13;82.97;97340.15;104055;1273;96173;-77
2023/07/13 23:50:51;;;;;;;8.70;7.70;;;;;;;15.10;82.82;97338.79;104246;1269;96754;-78
2023/07/13 23:53:19;;;;;;;8.80;6.60;;;;;;;15.07;82.92;97339.57;103939;1273;100607;-76
2023/07/13 23:55:47;;;;;;;9.50;7.60;;;;;;;15.06;82.92;97340.39;104331;1269;108445;-80
2023/07/13 23:58:55;;;;;;;12.50;6.90;;;;;;;15.05;83.10;97343.80;104141;1273;98727;-81
